KLAXKMMH

Guest
Details From KLAX - Los Angeles Intl
To KMMH - Mammoth Yosemite
Flight Number -
Tags Generated
Created
Modified
Stats Distance 222 nm / 411 km
Max Altitude 0 ft / 0 m
Waypoints 3
Social Downloads 5
Likes 0
Share VATSIM

Download

Looking for another format? Having issues loading an existing format? Contact us
Advertisement - Login to hide

Notes

Generated

Route

KLAX OAL62 KMMH

ID Type Via Altitude Latitude Longitude Leg Dist Tot Dist Heading (true) Name
O KLAX APT - 0 ft / 0 m 33.94914˚ -118.43120˚ - 0 nm - -
OAL62 FIX - 0 ft / 0 m 37.38585˚ -118.78992˚ 207 nm 207 nm 355° / 355° -
O KMMH APT - 0 ft / 0 m 37.62717˚ -118.85016˚ 14 nm 221 nm 349° / 349° -

Altitude Profile

Advertisement - Login to hide

Weather


0- 5 10 15 20 25 30 35+ Temperature / ° C

Clouds and Precipitation
Forecast for 2018-05-25 06:00 UTC. Updated 3 hours ago

Ground ~20,000 ft ~40,000 ft Winds

KLAX

Details ICAO KLAX (LAX)
Name Los Angeles Intl
Region United States
Timezone America/Los_Angeles (UTC-7.0)
Stats Elevation 126 ft / 38 m (AMSL)
Location 33.943130° -118.408917°
Runways 4
Magnetic Variation 11.968° E

METAR

KLAX 250653Z 25007KT 10SM FEW018 OVC039 16/12 A3010 RMK AO2 SLP190 T01560117

Decode

TAF

TAF KLAX 250540Z 2506/2612 26010KT P6SM SCT025 OVC035 FM251200 26006KT 6SM -DZ BR BKN015 OVC030 FM251700 26012KT P6SM SCT015 OVC035 FM252100 26015KT P6SM BKN040 FM260300 26010KT P6SM BKN025 FM260900 VRB03KT P6SM OVC025

Decode

Departure Runways

ID Width Length Bearing (true) Bearing (mag) Surface Threshold Offset Overrun Length
06L 151 ft / 46 m 8,907 ft / 2,715 m 82.98° 71.01° Concrete 0 ft / 0 m 0 ft / 0 m
06R 151 ft / 46 m 10,266 ft / 3,129 m 82.95° 70.98° Concrete 331 ft / 101 m 0 ft / 0 m
07L 151 ft / 46 m 12,069 ft / 3,679 m 82.96° 70.99° Concrete 0 ft / 0 m 0 ft / 0 m
07R 200 ft / 61 m 11,081 ft / 3,377 m 82.96° 70.99° Concrete 0 ft / 0 m 397 ft / 121 m
24L 151 ft / 46 m 10,266 ft / 3,129 m 262.97° 251.00° Concrete 0 ft / 0 m 174 ft / 53 m
24R 151 ft / 46 m 8,907 ft / 2,715 m 263.00° 251.03° Concrete 0 ft / 0 m 305 ft / 93 m
25L 200 ft / 61 m 11,081 ft / 3,377 m 262.98° 251.01° Concrete 0 ft / 0 m 1,053 ft / 321 m
25R 151 ft / 46 m 12,069 ft / 3,679 m 262.98° 251.01° Concrete 958 ft / 292 m 154 ft / 47 m

KMMH

Details ICAO KMMH (MMH)
Name Mammoth Yosemite
Region United States
Timezone America/Los_Angeles (UTC-7.0)
Stats Elevation 7,128 ft / 2,173 m (AMSL)
Location 37.624049° -118.838737°
Runways 1
Magnetic Variation 12.781° E

METAR

KMMH 250735Z AUTO 35004KT 10SM CLR 05/03 A3009 RMK AO2 T00540025

Decode

TAF

TAF KMMH 250520Z 2506/2606 27006KT P6SM SCT180 FM251600 12008KT P6SM VCSH SCT040 BKN080 FM252200 24012G20KT P6SM SCT080 BKN120

Decode

Destination Runways

ID Width Length Bearing (true) Bearing (mag) Surface Threshold Offset Overrun Length
09 98 ft / 30 m 6,987 ft / 2,130 m 109.02° 96.24° Asphalt 0 ft / 0 m 2,999 ft / 914 m
27 98 ft / 30 m 6,987 ft / 2,130 m 289.03° 276.25° Asphalt 0 ft / 0 m 0 ft / 0 m

Popular Alternatives